Time;durP1;ratioP1;P1;durP2;ratioP2;P2;SDS_P1;SDS_P2;PMS_P1;PMS_P2;Temp;Humidity;BMP_temperature;BMP_pressure;BME280_temperature;BME280_humidity;BME280_pressure;Samples;Min_cycle;Max_cycle;Signal;HPM_P1;HPM_P2
2023/05/01 00:00:04;;;;;;;8.82;2.53;;;;;;;;;;5093212;28;20297;-65
2023/05/01 00:02:29;;;;;;;7.45;3.20;;;;;;;;;;5092904;28;20216;-65
2023/05/01 00:04:55;;;;;;;6.65;2.80;;;;;;;;;;5092167;28;20646;-65
2023/05/01 00:07:20;;;;;;;6.70;2.75;;;;;;;;;;5072777;28;21004;-64
2023/05/01 00:09:45;;;;;;;7.80;3.35;;;;;;;;;;5071439;28;20219;-65
2023/05/01 00:12:11;;;;;;;10.10;2.80;;;;;;;;;;5059215;28;20245;-65
2023/05/01 00:14:36;;;;;;;6.88;2.70;;;;;;;;;;5055761;28;20572;-65
2023/05/01 00:17:02;;;;;;;7.57;2.78;;;;;;;;;;5054987;28;20545;-65
2023/05/01 00:19:27;;;;;;;8.10;2.95;;;;;;;;;;5059336;28;21360;-65
2023/05/01 00:21:52;;;;;;;9.27;3.00;;;;;;;;;;5063662;28;21162;-65
2023/05/01 00:24:17;;;;;;;7.90;2.70;;;;;;;;;;5061794;28;20206;-65
2023/05/01 00:26:43;;;;;;;7.55;2.70;;;;;;;;;;5079640;28;20214;-65
2023/05/01 00:29:09;;;;;;;12.68;3.70;;;;;;;;;;5062636;28;20303;-65
2023/05/01 00:31:35;;;;;;;6.80;2.70;;;;;;;;;;5069489;28;21076;-65
2023/05/01 00:34:00;;;;;;;9.07;3.30;;;;;;;;;;5081343;28;20209;-65
2023/05/01 00:36:25;;;;;;;6.32;3.30;;;;;;;;;;5074800;28;20685;-65
2023/05/01 00:38:51;;;;;;;8.43;3.00;;;;;;;;;;5075087;28;20232;-64
2023/05/01 00:41:16;;;;;;;8.13;3.08;;;;;;;;;;5075566;28;20240;-64
2023/05/01 00:43:41;;;;;;;8.23;2.97;;;;;;;;;;5079579;28;20213;-64
2023/05/01 00:46:07;;;;;;;9.30;2.90;;;;;;;;;;5062176;28;20218;-64
2023/05/01 00:48:32;;;;;;;7.65;2.92;;;;;;;;;;5062880;28;20261;-65
2023/05/01 00:50:57;;;;;;;6.80;2.88;;;;;;;;;;5061005;28;20349;-65
2023/05/01 00:53:25;;;;;;;8.65;3.20;;;;;;;;;;5079990;28;20209;-65
2023/05/01 00:55:50;;;;;;;7.78;2.92;;;;;;;;;;5081188;28;20633;-65
2023/05/01 00:58:15;;;;;;;7.05;3.00;;;;;;;;;;5075028;28;20220;-65
2023/05/01 01:00:41;;;;;;;8.68;3.08;;;;;;;;;;5072838;28;20285;-65
2023/05/01 01:03:06;;;;;;;8.45;3.40;;;;;;;;;;5072818;28;20217;-65
2023/05/01 01:05:31;;;;;;;9.10;3.13;;;;;;;;;;5075594;28;20214;-65
2023/05/01 01:08:03;;;;;;;5.53;2.80;;;;;;;;;;5062368;28;20216;-65
2023/05/01 01:10:40;;;;;;;7.60;2.78;;;;;;;;;;5064977;28;20258;-65
2023/05/01 01:13:08;;;;;;;9.68;3.20;;;;;;;;;;5084833;28;20680;-65
2023/05/01 01:15:35;;;;;;;8.82;3.35;;;;;;;;;;5091449;28;20696;-65
2023/05/01 01:18:01;;;;;;;7.68;2.72;;;;;;;;;;5070266;28;20616;-63
2023/05/01 01:20:29;;;;;;;7.30;3.00;;;;;;;;;;5071019;28;20206;-64
2023/05/01 01:23:00;;;;;;;9.35;3.13;;;;;;;;;;5071597;28;20224;-64
2023/05/01 01:25:28;;;;;;;6.82;3.38;;;;;;;;;;5071419;28;20225;-65
2023/05/01 01:28:02;;;;;;;9.80;3.15;;;;;;;;;;5070540;28;20214;-65
2023/05/01 01:30:31;;;;;;;7.95;3.70;;;;;;;;;;5069941;28;20223;-65
2023/05/01 01:33:00;;;;;;;5.30;2.92;;;;;;;;;;5069489;28;20214;-65
2023/05/01 01:35:26;;;;;;;8.02;3.20;;;;;;;;;;5062107;28;20678;-65
2023/05/01 01:38:03;;;;;;;11.55;3.20;;;;;;;;;;5061933;28;20225;-65
2023/05/01 01:40:30;;;;;;;6.43;2.90;;;;;;;;;;5080116;28;20205;-64
2023/05/01 01:43:01;;;;;;;7.38;2.90;;;;;;;;;;5079857;28;20640;-65
2023/05/01 01:45:33;;;;;;;9.48;3.55;;;;;;;;;;5055952;28;20665;-65
2023/05/01 01:47:59;;;;;;;6.95;2.95;;;;;;;;;;5071299;28;20327;-64
2023/05/01 01:50:24;;;;;;;11.20;3.42;;;;;;;;;;5075727;28;20744;-65
2023/05/01 01:52:50;;;;;;;4.50;2.55;;;;;;;;;;5080054;28;20217;-65
2023/05/01 01:55:15;;;;;;;7.10;2.90;;;;;;;;;;5080042;28;20216;-65
2023/05/01 01:57:42;;;;;;;8.90;3.13;;;;;;;;;;5081253;28;20218;-65
2023/05/01 02:00:09;;;;;;;6.72;3.10;;;;;;;;;;5079258;28;20217;-64
2023/05/01 02:02:36;;;;;;;8.18;3.28;;;;;;;;;;5078216;28;20622;-65
2023/05/01 02:05:01;;;;;;;6.95;3.20;;;;;;;;;;5079235;28;20254;-64
2023/05/01 02:07:27;;;;;;;8.85;3.00;;;;;;;;;;5054145;28;20214;-64
2023/05/01 02:09:52;;;;;;;8.43;3.03;;;;;;;;;;5065755;28;20271;-65
2023/05/01 02:12:17;;;;;;;7.88;3.08;;;;;;;;;;5072059;28;20779;-64
2023/05/01 02:14:43;;;;;;;7.75;3.40;;;;;;;;;;5079714;28;20222;-65
2023/05/01 02:17:08;;;;;;;9.43;3.50;;;;;;;;;;5067302;28;20677;-64
2023/05/01 02:19:33;;;;;;;7.82;3.70;;;;;;;;;;5079460;28;20252;-65
2023/05/01 02:21:59;;;;;;;6.25;3.08;;;;;;;;;;5075062;28;20241;-65
2023/05/01 02:24:24;;;;;;;7.55;3.47;;;;;;;;;;5060650;28;20305;-65
2023/05/01 02:26:58;;;;;;;9.13;3.35;;;;;;;;;;5078657;28;20228;-65
2023/05/01 02:29:24;;;;;;;6.05;3.30;;;;;;;;;;5072890;28;20197;-65
2023/05/01 02:31:49;;;;;;;5.93;2.95;;;;;;;;;;5072611;28;20693;-65
2023/05/01 02:34:15;;;;;;;8.57;3.10;;;;;;;;;;5072567;28;20229;-65
2023/05/01 02:36:40;;;;;;;7.07;3.45;;;;;;;;;;5077835;28;20741;-65
2023/05/01 02:39:05;;;;;;;9.13;3.65;;;;;;;;;;5080241;28;20800;-65
2023/05/01 02:41:31;;;;;;;9.55;3.75;;;;;;;;;;5080288;28;20536;-65
2023/05/01 02:43:57;;;;;;;9.43;3.38;;;;;;;;;;5079933;28;20225;-65
2023/05/01 02:46:23;;;;;;;6.80;3.58;;;;;;;;;;5078245;28;20225;-65
2023/05/01 02:48:48;;;;;;;6.90;3.58;;;;;;;;;;5078922;28;20693;-65
2023/05/01 02:51:13;;;;;;;7.85;3.47;;;;;;;;;;5056254;28;20304;-65
2023/05/01 02:53:39;;;;;;;7.50;3.20;;;;;;;;;;5070812;28;20218;-65
2023/05/01 02:56:06;;;;;;;6.57;3.10;;;;;;;;;;5070908;28;20794;-64
2023/05/01 02:58:31;;;;;;;7.63;3.63;;;;;;;;;;5073334;28;20206;-65
2023/05/01 03:00:57;;;;;;;7.93;3.20;;;;;;;;;;5078995;28;20212;-65
2023/05/01 03:03:22;;;;;;;9.90;4.00;;;;;;;;;;5079473;28;20217;-65
2023/05/01 03:05:47;;;;;;;7.38;3.20;;;;;;;;;;5072653;28;20210;-65
2023/05/01 03:08:12;;;;;;;6.55;3.60;;;;;;;;;;5059908;28;20218;-65
2023/05/01 03:10:41;;;;;;;8.50;3.63;;;;;;;;;;5063119;28;20222;-65
2023/05/01 03:13:07;;;;;;;10.88;3.53;;;;;;;;;;5064424;28;20214;-65
2023/05/01 03:15:32;;;;;;;10.45;3.67;;;;;;;;;;5059811;28;20627;-65
2023/05/01 03:17:57;;;;;;;10.00;3.70;;;;;;;;;;5077147;28;20969;-65
2023/05/01 03:20:23;;;;;;;9.45;3.92;;;;;;;;;;5078559;28;20224;-65
2023/05/01 03:22:48;;;;;;;8.98;4.07;;;;;;;;;;5075889;28;20249;-65
2023/05/01 03:25:14;;;;;;;7.80;3.47;;;;;;;;;;5065837;28;20248;-65
2023/05/01 03:27:39;;;;;;;9.75;3.63;;;;;;;;;;5066577;28;20569;-65
2023/05/01 03:30:05;;;;;;;10.30;3.92;;;;;;;;;;5066354;28;20226;-64
2023/05/01 03:32:30;;;;;;;7.82;3.83;;;;;;;;;;5066021;28;20209;-65
2023/05/01 03:34:56;;;;;;;10.32;4.18;;;;;;;;;;5067309;28;20229;-65
2023/05/01 03:37:21;;;;;;;9.35;4.00;;;;;;;;;;5060650;28;20202;-65
2023/05/01 03:39:46;;;;;;;8.18;3.50;;;;;;;;;;5058572;28;21386;-65
2023/05/01 03:42:12;;;;;;;7.20;3.90;;;;;;;;;;5058286;28;20503;-65
2023/05/01 03:44:37;;;;;;;8.88;3.85;;;;;;;;;;5082857;28;20215;-65
2023/05/01 03:47:02;;;;;;;7.32;3.85;;;;;;;;;;5073877;28;20222;-65
2023/05/01 03:49:28;;;;;;;8.30;4.40;;;;;;;;;;5066786;28;20210;-65
2023/05/01 03:51:53;;;;;;;6.78;3.72;;;;;;;;;;5066359;28;20845;-65
2023/05/01 03:54:18;;;;;;;9.57;4.25;;;;;;;;;;5065242;28;20207;-65
2023/05/01 03:56:43;;;;;;;7.15;3.75;;;;;;;;;;5066672;28;20214;-65
2023/05/01 03:59:09;;;;;;;10.60;4.03;;;;;;;;;;5062609;28;20214;-65
2023/05/01 04:01:34;;;;;;;9.20;4.00;;;;;;;;;;5058353;28;20210;-65
2023/05/01 04:04:00;;;;;;;7.18;4.28;;;;;;;;;;5058676;28;20745;-65
2023/05/01 04:06:26;;;;;;;9.07;4.18;;;;;;;;;;5061827;28;20260;-65
2023/05/01 04:08:52;;;;;;;11.02;4.38;;;;;;;;;;5066098;28;20731;-65
2023/05/01 04:11:17;;;;;;;8.68;3.95;;;;;;;;;;5065811;28;20656;-64
2023/05/01 04:13:42;;;;;;;7.28;4.20;;;;;;;;;;5066530;28;20214;-65
2023/05/01 04:16:08;;;;;;;6.70;4.15;;;;;;;;;;5065312;28;20206;-64
2023/05/01 04:18:33;;;;;;;6.38;3.75;;;;;;;;;;5066510;28;20230;-65
2023/05/01 04:20:58;;;;;;;7.72;4.10;;;;;;;;;;5065188;28;20721;-65
2023/05/01 04:23:23;;;;;;;9.35;4.03;;;;;;;;;;5058133;28;20305;-64
2023/05/01 04:25:49;;;;;;;7.28;3.40;;;;;;;;;;5055913;28;20214;-65
2023/05/01 04:28:14;;;;;;;7.50;4.10;;;;;;;;;;5055997;28;20747;-65
2023/05/01 04:30:39;;;;;;;9.55;4.10;;;;;;;;;;5062180;28;20529;-66
2023/05/01 04:33:10;;;;;;;8.63;4.43;;;;;;;;;;5062155;28;20422;-65
2023/05/01 04:35:41;;;;;;;8.38;3.88;;;;;;;;;;5082191;28;20697;-65
2023/05/01 04:38:06;;;;;;;14.27;4.40;;;;;;;;;;5080685;28;20221;-64
2023/05/01 04:40:32;;;;;;;7.95;4.28;;;;;;;;;;5085589;28;20226;-66
2023/05/01 04:42:57;;;;;;;9.50;4.25;;;;;;;;;;5071760;28;20763;-65
2023/05/01 04:45:22;;;;;;;9.32;4.70;;;;;;;;;;5070924;28;20313;-64
2023/05/01 04:47:48;;;;;;;8.55;4.80;;;;;;;;;;5071095;28;20598;-65
2023/05/01 04:50:13;;;;;;;9.35;4.10;;;;;;;;;;5083611;28;20273;-65
2023/05/01 04:52:38;;;;;;;8.82;4.38;;;;;;;;;;5086801;28;20202;-65
2023/05/01 04:55:04;;;;;;;8.70;4.35;;;;;;;;;;5082988;28;20212;-65
2023/05/01 04:57:29;;;;;;;10.00;4.20;;;;;;;;;;5081304;28;20222;-65
2023/05/01 04:59:54;;;;;;;10.40;4.28;;;;;;;;;;5082654;28;20260;-65
2023/05/01 05:02:20;;;;;;;7.10;3.92;;;;;;;;;;5083179;28;20226;-65
2023/05/01 05:04:45;;;;;;;9.90;4.50;;;;;;;;;;5085815;28;20275;-65
2023/05/01 05:07:10;;;;;;;8.38;4.18;;;;;;;;;;5084041;28;20202;-66
2023/05/01 05:09:36;;;;;;;8.23;4.22;;;;;;;;;;5080779;28;20606;-65
2023/05/01 05:12:03;;;;;;;10.98;4.13;;;;;;;;;;5083287;28;20695;-65
2023/05/01 05:14:28;;;;;;;9.10;4.20;;;;;;;;;;5082927;28;20213;-65
2023/05/01 05:16:54;;;;;;;9.40;4.13;;;;;;;;;;5090895;28;20570;-67
2023/05/01 05:19:19;;;;;;;9.98;4.60;;;;;;;;;;5090899;28;20676;-65
2023/05/01 05:21:44;;;;;;;7.95;4.10;;;;;;;;;;5080399;28;20304;-66
2023/05/01 05:24:10;;;;;;;9.57;4.65;;;;;;;;;;5082932;28;20210;-65
2023/05/01 05:26:35;;;;;;;9.70;5.00;;;;;;;;;;5084965;28;20700;-65
2023/05/01 05:29:00;;;;;;;9.18;3.92;;;;;;;;;;5091761;28;20232;-62
2023/05/01 05:31:26;;;;;;;7.57;4.15;;;;;;;;;;5091879;28;20301;-65
2023/05/01 05:33:51;;;;;;;13.65;4.82;;;;;;;;;;5091073;28;20214;-65
2023/05/01 05:36:17;;;;;;;9.15;4.50;;;;;;;;;;5091381;28;20217;-65
2023/05/01 05:38:42;;;;;;;10.43;4.68;;;;;;;;;;5091047;28;20696;-65
2023/05/01 05:41:07;;;;;;;11.45;5.07;;;;;;;;;;5086052;28;20214;-65
2023/05/01 05:43:33;;;;;;;9.88;4.88;;;;;;;;;;5091628;28;20210;-66
2023/05/01 05:45:58;;;;;;;10.25;4.90;;;;;;;;;;5070590;28;20219;-66
2023/05/01 05:48:24;;;;;;;7.82;4.63;;;;;;;;;;5081657;28;20617;-66
2023/05/01 05:50:51;;;;;;;9.55;4.82;;;;;;;;;;5073175;28;20242;-66
2023/05/01 05:53:16;;;;;;;9.23;4.78;;;;;;;;;;5073504;28;20237;-66
2023/05/01 05:55:44;;;;;;;12.00;5.05;;;;;;;;;;5071160;28;20642;-66
2023/05/01 05:58:10;;;;;;;10.02;4.82;;;;;;;;;;5076285;28;20202;-66
2023/05/01 06:00:35;;;;;;;10.00;4.70;;;;;;;;;;5083368;28;20235;-66
2023/05/01 06:03:01;;;;;;;9.95;4.93;;;;;;;;;;5091407;28;20213;-66
2023/05/01 06:05:26;;;;;;;8.15;4.78;;;;;;;;;;5086157;28;20572;-65
2023/05/01 06:07:51;;;;;;;9.10;5.30;;;;;;;;;;5070249;28;20218;-66
2023/05/01 06:10:17;;;;;;;9.43;4.63;;;;;;;;;;5083002;28;20744;-66
2023/05/01 06:12:42;;;;;;;8.60;4.60;;;;;;;;;;5089907;28;20229;-65
2023/05/01 06:15:08;;;;;;;12.63;4.70;;;;;;;;;;5090086;28;20216;-66
2023/05/01 06:17:34;;;;;;;10.45;4.90;;;;;;;;;;5073572;28;20273;-66
2023/05/01 06:20:00;;;;;;;10.93;5.45;;;;;;;;;;5069315;28;20203;-66
2023/05/01 06:22:26;;;;;;;12.35;5.25;;;;;;;;;;5069710;28;20198;-66
2023/05/01 06:24:51;;;;;;;9.40;4.80;;;;;;;;;;5070549;28;20232;-66
2023/05/01 06:27:16;;;;;;;9.45;4.90;;;;;;;;;;5070251;28;20249;-65
2023/05/01 06:29:42;;;;;;;9.02;5.00;;;;;;;;;;5069833;28;20229;-66
2023/05/01 06:32:07;;;;;;;8.75;4.50;;;;;;;;;;5070020;28;20238;-65
2023/05/01 06:34:32;;;;;;;9.65;4.80;;;;;;;;;;5070660;28;20241;-66
2023/05/01 06:36:57;;;;;;;8.82;4.88;;;;;;;;;;5069677;28;20211;-65
2023/05/01 06:39:23;;;;;;;9.85;5.22;;;;;;;;;;5069886;28;20218;-65
2023/05/01 06:41:48;;;;;;;11.85;5.55;;;;;;;;;;5070384;28;20206;-66
2023/05/01 06:44:14;;;;;;;11.77;5.80;;;;;;;;;;5069333;28;20210;-66
2023/05/01 06:46:39;;;;;;;12.05;5.82;;;;;;;;;;5069141;28;20206;-66
2023/05/01 06:49:05;;;;;;;9.10;5.20;;;;;;;;;;5068533;28;20217;-66
2023/05/01 06:51:31;;;;;;;11.48;5.20;;;;;;;;;;5068796;28;20222;-65
2023/05/01 06:53:56;;;;;;;12.52;6.03;;;;;;;;;;5087335;28;20218;-66
2023/05/01 06:56:21;;;;;;;10.95;5.35;;;;;;;;;;5089229;28;20651;-66
2023/05/01 06:58:47;;;;;;;13.23;5.15;;;;;;;;;;5089260;28;20214;-66
2023/05/01 07:01:12;;;;;;;12.27;5.30;;;;;;;;;;5089964;28;20305;-66
2023/05/01 07:03:37;;;;;;;10.10;5.85;;;;;;;;;;5089562;28;20606;-66
2023/05/01 07:06:03;;;;;;;12.25;5.60;;;;;;;;;;5080307;28;20296;-66
2023/05/01 07:08:28;;;;;;;10.02;6.07;;;;;;;;;;5070077;28;20518;-66
2023/05/01 07:10:53;;;;;;;11.27;5.57;;;;;;;;;;5085482;28;20305;-65
2023/05/01 07:13:19;;;;;;;11.43;5.70;;;;;;;;;;5071675;28;20615;-66
2023/05/01 07:15:44;;;;;;;10.40;5.53;;;;;;;;;;5088106;28;20240;-66
2023/05/01 07:18:11;;;;;;;10.27;5.93;;;;;;;;;;5068789;28;20225;-67
2023/05/01 07:20:36;;;;;;;15.25;6.00;;;;;;;;;;5070111;28;20222;-67
2023/05/01 07:23:02;;;;;;;11.15;6.30;;;;;;;;;;5069339;28;20224;-65
2023/05/01 07:25:27;;;;;;;9.40;5.78;;;;;;;;;;5069222;28;20214;-66
2023/05/01 07:27:53;;;;;;;15.95;5.93;;;;;;;;;;5070090;28;20206;-66
2023/05/01 07:30:19;;;;;;;12.27;6.50;;;;;;;;;;5069466;28;20269;-66
2023/05/01 07:32:44;;;;;;;12.02;5.85;;;;;;;;;;5069273;28;20293;-67
2023/05/01 07:35:10;;;;;;;14.68;6.88;;;;;;;;;;5068050;28;20620;-66
2023/05/01 07:37:35;;;;;;;14.20;6.70;;;;;;;;;;5072499;28;20217;-66
2023/05/01 07:40:01;;;;;;;11.23;6.40;;;;;;;;;;5088706;28;20216;-65
2023/05/01 07:42:26;;;;;;;12.18;6.57;;;;;;;;;;5089930;28;20286;-66
2023/05/01 07:44:51;;;;;;;11.70;6.47;;;;;;;;;;5090137;28;20296;-68
2023/05/01 07:47:17;;;;;;;11.90;6.47;;;;;;;;;;5088908;28;20571;-68
2023/05/01 07:49:42;;;;;;;11.90;6.43;;;;;;;;;;5089814;28;20704;-68
2023/05/01 07:52:07;;;;;;;12.05;6.10;;;;;;;;;;5076289;28;20237;-67
2023/05/01 07:54:33;;;;;;;10.68;6.07;;;;;;;;;;5069014;28;20217;-68
2023/05/01 07:56:58;;;;;;;10.93;6.78;;;;;;;;;;5069625;28;20685;-68
2023/05/01 07:59:24;;;;;;;11.23;6.70;;;;;;;;;;5068631;28;20685;-68
2023/05/01 08:01:49;;;;;;;11.80;6.50;;;;;;;;;;5072212;28;20568;-68
2023/05/01 08:04:15;;;;;;;11.77;6.75;;;;;;;;;;5073067;28;20203;-68
2023/05/01 08:06:41;;;;;;;12.65;6.30;;;;;;;;;;5072480;28;20235;-68
2023/05/01 08:09:06;;;;;;;10.40;6.28;;;;;;;;;;5075487;28;20688;-67
2023/05/01 08:11:32;;;;;;;10.85;5.85;;;;;;;;;;5093019;28;20230;-67
2023/05/01 08:13:58;;;;;;;11.63;6.47;;;;;;;;;;5091244;28;20735;-69
2023/05/01 08:16:23;;;;;;;11.13;6.22;;;;;;;;;;5085418;28;20214;-68
2023/05/01 08:18:48;;;;;;;10.27;6.70;;;;;;;;;;5071910;28;20221;-68
2023/05/01 08:21:14;;;;;;;9.75;5.70;;;;;;;;;;5071638;28;20689;-68
2023/05/01 08:23:39;;;;;;;9.98;5.80;;;;;;;;;;5073083;28;20214;-68
2023/05/01 08:26:04;;;;;;;11.55;5.90;;;;;;;;;;5092874;28;20621;-68
2023/05/01 08:28:31;;;;;;;9.55;5.57;;;;;;;;;;5092375;28;20213;-68
2023/05/01 08:30:56;;;;;;;11.18;6.18;;;;;;;;;;5093130;28;20229;-68
2023/05/01 08:33:23;;;;;;;9.52;5.60;;;;;;;;;;5092446;28;20573;-67
2023/05/01 08:35:48;;;;;;;10.45;6.00;;;;;;;;;;5092102;28;20275;-68
2023/05/01 08:38:14;;;;;;;9.00;5.57;;;;;;;;;;5092363;28;20210;-69
2023/05/01 08:40:39;;;;;;;9.93;5.75;;;;;;;;;;5092699;28;20210;-68
2023/05/01 08:43:05;;;;;;;12.70;6.03;;;;;;;;;;5091636;28;20251;-67
2023/05/01 08:45:34;;;;;;;14.35;6.15;;;;;;;;;;5092790;28;20210;-69
2023/05/01 08:48:00;;;;;;;10.85;5.63;;;;;;;;;;5092803;28;20213;-68
2023/05/01 08:50:25;;;;;;;9.63;6.22;;;;;;;;;;5090277;28;20225;-68
2023/05/01 08:52:51;;;;;;;8.65;5.40;;;;;;;;;;5073397;28;20685;-68
2023/05/01 08:55:17;;;;;;;8.82;6.00;;;;;;;;;;5072066;28;20206;-71
2023/05/01 08:57:44;;;;;;;9.75;5.78;;;;;;;;;;5070459;28;20244;-69
2023/05/01 09:00:10;;;;;;;9.02;4.97;;;;;;;;;;5071862;28;20647;-67
2023/05/01 09:02:35;;;;;;;7.93;5.40;;;;;;;;;;5071091;28;20207;-69
2023/05/01 09:05:02;;;;;;;8.88;4.70;;;;;;;;;;5069907;28;20237;-68
2023/05/01 09:07:28;;;;;;;8.32;5.15;;;;;;;;;;5072126;28;20297;-69
2023/05/01 09:09:53;;;;;;;10.13;5.40;;;;;;;;;;5080655;28;20305;-68
2023/05/01 09:12:22;;;;;;;8.63;5.45;;;;;;;;;;5091181;28;20308;-70
2023/05/01 09:14:47;;;;;;;10.30;5.05;;;;;;;;;;5092421;28;20225;-69
2023/05/01 09:17:12;;;;;;;10.25;5.38;;;;;;;;;;5076585;28;20308;-69
2023/05/01 09:19:39;;;;;;;8.77;5.45;;;;;;;;;;5071863;28;20276;-70
2023/05/01 09:22:04;;;;;;;10.77;5.82;;;;;;;;;;5071473;28;20665;-70
2023/05/01 09:24:29;;;;;;;7.85;4.95;;;;;;;;;;5071266;28;20257;-70
2023/05/01 09:26:57;;;;;;;9.88;4.97;;;;;;;;;;5071862;28;20203;-69
2023/05/01 09:29:38;;;;;;;9.27;5.10;;;;;;;;;;5070143;28;20210;-69
2023/05/01 09:32:20;;;;;;;11.95;5.88;;;;;;;;;;5070563;28;20234;-69
2023/05/01 09:34:46;;;;;;;10.68;5.63;;;;;;;;;;5071559;28;20214;-70
2023/05/01 09:37:13;;;;;;;9.23;5.30;;;;;;;;;;5069999;28;20214;-70
2023/05/01 09:39:38;;;;;;;11.02;5.68;;;;;;;;;;5070974;28;20279;-70
2023/05/01 09:42:04;;;;;;;8.75;5.05;;;;;;;;;;5071070;28;20214;-71
2023/05/01 09:44:29;;;;;;;10.55;5.40;;;;;;;;;;5071641;28;20206;-71
2023/05/01 09:46:54;;;;;;;8.13;4.65;;;;;;;;;;5070769;28;20245;-71
2023/05/01 09:49:20;;;;;;;8.00;3.60;;;;;;;;;;5070914;28;20298;-70
2023/05/01 09:51:45;;;;;;;6.70;4.00;;;;;;;;;;5069578;28;20612;-71
2023/05/01 09:54:17;;;;;;;6.80;4.15;;;;;;;;;;5068676;28;20230;-70
2023/05/01 09:56:48;;;;;;;10.52;4.97;;;;;;;;;;5071420;28;20263;-71
2023/05/01 09:59:14;;;;;;;8.90;3.90;;;;;;;;;;5070054;28;20336;-71
2023/05/01 10:01:40;;;;;;;8.90;4.15;;;;;;;;;;5071079;28;20210;-71
2023/05/01 10:04:06;;;;;;;9.57;4.05;;;;;;;;;;5069439;28;20210;-69
2023/05/01 10:06:31;;;;;;;6.40;3.85;;;;;;;;;;5083898;28;20218;-70
2023/05/01 10:08:57;;;;;;;7.85;4.30;;;;;;;;;;5089576;28;20205;-70
2023/05/01 10:11:22;;;;;;;7.90;4.50;;;;;;;;;;5069608;28;20590;-70
2023/05/01 10:14:05;;;;;;;7.95;4.55;;;;;;;;;;5069465;28;20218;-69
2023/05/01 10:16:32;;;;;;;6.30;4.53;;;;;;;;;;5065625;28;20287;-68
2023/05/01 10:18:57;;;;;;;7.72;4.40;;;;;;;;;;5070575;28;20375;-70
2023/05/01 10:21:23;;;;;;;11.15;4.88;;;;;;;;;;5067672;28;20721;-70
2023/05/01 10:23:48;;;;;;;8.77;4.93;;;;;;;;;;5069499;28;20267;-70
2023/05/01 10:26:15;;;;;;;12.40;5.10;;;;;;;;;;5069747;28;20224;-69
2023/05/01 10:28:40;;;;;;;9.75;4.63;;;;;;;;;;5068061;28;20256;-69
2023/05/01 10:31:06;;;;;;;7.13;4.60;;;;;;;;;;5068229;28;20267;-68
2023/05/01 10:33:31;;;;;;;8.20;4.65;;;;;;;;;;5068960;28;20263;-69
2023/05/01 10:35:56;;;;;;;8.05;4.30;;;;;;;;;;5067883;28;20209;-69
2023/05/01 10:38:23;;;;;;;9.95;4.43;;;;;;;;;;5069592;28;20304;-69
2023/05/01 10:40:48;;;;;;;6.22;4.30;;;;;;;;;;5068655;28;20318;-69
2023/05/01 10:43:19;;;;;;;7.60;4.15;;;;;;;;;;5068816;28;20225;-69
2023/05/01 10:45:45;;;;;;;6.15;3.50;;;;;;;;;;5070244;28;20210;-70
2023/05/01 10:48:10;;;;;;;5.82;3.38;;;;;;;;;;5058089;28;20220;-69
2023/05/01 10:50:56;;;;;;;6.10;3.33;;;;;;;;;;5072956;28;20585;-70
2023/05/01 10:53:22;;;;;;;5.65;3.30;;;;;;;;;;5067693;28;20665;-69
2023/05/01 10:55:48;;;;;;;7.60;3.25;;;;;;;;;;5068952;28;20218;-70
2023/05/01 10:58:33;;;;;;;6.13;3.55;;;;;;;;;;5086316;28;20202;-70
2023/05/01 11:01:19;;;;;;;6.20;3.80;;;;;;;;;;5088773;28;20263;-70
2023/05/01 11:03:45;;;;;;;8.65;4.20;;;;;;;;;;5068191;28;20236;-69
2023/05/01 11:06:10;;;;;;;6.13;3.97;;;;;;;;;;5079733;28;20242;-69
2023/05/01 11:08:37;;;;;;;6.78;3.70;;;;;;;;;;5089773;28;20224;-69
2023/05/01 11:11:18;;;;;;;7.18;3.35;;;;;;;;;;5068009;28;20237;-68
2023/05/01 11:13:59;;;;;;;6.70;3.35;;;;;;;;;;5067757;28;20247;-72
2023/05/01 11:16:40;;;;;;;6.85;4.10;;;;;;;;;;5074695;28;20206;-69
2023/05/01 11:19:19;;;;;;;9.55;3.92;;;;;;;;;;5088981;28;20220;-67
2023/05/01 11:21:44;;;;;;;4.97;2.50;;;;;;;;;;5089634;28;20220;-69
2023/05/01 11:24:10;;;;;;;6.07;3.60;;;;;;;;;;5088625;28;20205;-69
2023/05/01 11:26:37;;;;;;;7.05;3.58;;;;;;;;;;5079208;28;20690;-70
2023/05/01 11:29:03;;;;;;;5.07;2.40;;;;;;;;;;5080846;28;20233;-68
2023/05/01 11:31:28;;;;;;;4.78;2.47;;;;;;;;;;5087287;28;20576;-69
2023/05/01 11:33:55;;;;;;;6.57;2.60;;;;;;;;;;5089519;28;20218;-69
2023/05/01 11:36:21;;;;;;;7.70;2.97;;;;;;;;;;5091558;28;20286;-69
2023/05/01 11:38:50;;;;;;;5.45;2.95;;;;;;;;;;5093005;28;20594;-69
2023/05/01 11:41:16;;;;;;;5.82;2.65;;;;;;;;;;5093095;28;20218;-69
2023/05/01 11:43:48;;;;;;;5.72;3.05;;;;;;;;;;5092430;28;20709;-68
2023/05/01 11:46:14;;;;;;;6.50;3.55;;;;;;;;;;5090128;28;20250;-68
2023/05/01 11:48:39;;;;;;;7.28;3.53;;;;;;;;;;5093304;28;20288;-68
2023/05/01 11:51:11;;;;;;;5.75;3.08;;;;;;;;;;5087429;28;20779;-68
2023/05/01 11:53:36;;;;;;;8.18;3.63;;;;;;;;;;5072551;28;20238;-68
2023/05/01 11:56:02;;;;;;;6.60;2.63;;;;;;;;;;5072747;28;20284;-68
2023/05/01 11:58:30;;;;;;;5.15;2.60;;;;;;;;;;5072629;28;20210;-69
2023/05/01 12:00:56;;;;;;;6.30;2.60;;;;;;;;;;5072515;28;20577;-69
2023/05/01 12:03:21;;;;;;;4.78;2.80;;;;;;;;;;5072258;28;20217;-68
2023/05/01 12:05:47;;;;;;;10.50;2.58;;;;;;;;;;5072173;28;20221;-68
2023/05/01 12:08:19;;;;;;;6.07;2.40;;;;;;;;;;5069478;28;20206;-68
2023/05/01 12:10:45;;;;;;;6.22;2.70;;;;;;;;;;5069251;28;20632;-69
2023/05/01 12:13:11;;;;;;;4.55;2.17;;;;;;;;;;5071555;28;20218;-69
2023/05/01 12:15:38;;;;;;;6.30;2.50;;;;;;;;;;5072448;28;20210;-69
2023/05/01 12:18:04;;;;;;;6.70;2.70;;;;;;;;;;5090810;28;20580;-68
2023/05/01 12:20:37;;;;;;;6.85;2.53;;;;;;;;;;5090706;28;20248;-68
2023/05/01 12:23:04;;;;;;;4.07;2.30;;;;;;;;;;5092480;28;20222;-68
2023/05/01 12:25:30;;;;;;;6.13;2.90;;;;;;;;;;5077553;28;20715;-69
2023/05/01 12:27:56;;;;;;;8.30;3.00;;;;;;;;;;5071421;28;20272;-69
2023/05/01 12:30:25;;;;;;;6.53;2.50;;;;;;;;;;5070350;28;20223;-69
2023/05/01 12:32:51;;;;;;;9.55;2.42;;;;;;;;;;5072227;28;20210;-68
2023/05/01 12:35:16;;;;;;;6.90;2.47;;;;;;;;;;5090511;28;20571;-68
2023/05/01 12:37:42;;;;;;;6.45;2.40;;;;;;;;;;5092670;28;20214;-70
2023/05/01 12:40:11;;;;;;;8.30;2.90;;;;;;;;;;5092080;28;20233;-69
2023/05/01 12:42:37;;;;;;;8.85;2.80;;;;;;;;;;5091606;28;20254;-69
2023/05/01 12:45:02;;;;;;;6.47;2.65;;;;;;;;;;5090610;28;20629;-68
2023/05/01 12:47:34;;;;;;;6.32;2.40;;;;;;;;;;5090987;28;20274;-68
2023/05/01 12:50:00;;;;;;;7.65;2.33;;;;;;;;;;5089978;28;20214;-69
2023/05/01 12:52:26;;;;;;;7.57;2.67;;;;;;;;;;5074985;28;20585;-69
2023/05/01 12:54:56;;;;;;;7.22;2.28;;;;;;;;;;5071229;28;20673;-69
2023/05/01 12:57:21;;;;;;;5.45;2.05;;;;;;;;;;5070022;28;20203;-69
2023/05/01 12:59:49;;;;;;;6.20;2.10;;;;;;;;;;5071968;28;20221;-69
2023/05/01 13:02:16;;;;;;;5.85;1.80;;;;;;;;;;5070162;28;20237;-68
2023/05/01 13:04:42;;;;;;;4.75;1.90;;;;;;;;;;5071810;28;20574;-69
2023/05/01 13:07:11;;;;;;;4.47;1.77;;;;;;;;;;5071230;28;20257;-69
2023/05/01 13:09:36;;;;;;;5.55;1.70;;;;;;;;;;5078112;28;20290;-69
2023/05/01 13:12:04;;;;;;;3.90;1.50;;;;;;;;;;5090925;28;20745;-67
2023/05/01 13:14:34;;;;;;;5.07;1.83;;;;;;;;;;5092030;28;20564;-68
2023/05/01 13:16:59;;;;;;;8.57;2.10;;;;;;;;;;5077815;28;20619;-69
2023/05/01 13:19:27;;;;;;;5.55;1.58;;;;;;;;;;5071031;28;20995;-69
2023/05/01 13:21:52;;;;;;;5.13;1.58;;;;;;;;;;5079297;28;20209;-68
2023/05/01 13:24:17;;;;;;;3.05;1.40;;;;;;;;;;5081636;28;20228;-70
2023/05/01 13:26:43;;;;;;;5.15;1.33;;;;;;;;;;5075098;28;20218;-68
2023/05/01 13:29:12;;;;;;;4.45;2.03;;;;;;;;;;5070700;28;20683;-67
2023/05/01 13:31:37;;;;;;;5.68;1.98;;;;;;;;;;5068932;28;20252;-68
2023/05/01 13:34:02;;;;;;;6.65;2.22;;;;;;;;;;5069133;28;20215;-68
2023/05/01 13:36:31;;;;;;;4.13;1.98;;;;;;;;;;5071387;28;20206;-68
2023/05/01 13:38:56;;;;;;;7.82;1.90;;;;;;;;;;5068995;28;20298;-68
2023/05/01 13:41:22;;;;;;;6.00;1.90;;;;;;;;;;5070590;28;20238;-68
2023/05/01 13:43:47;;;;;;;5.65;1.90;;;;;;;;;;5070847;28;20563;-68
2023/05/01 13:46:13;;;;;;;5.10;1.90;;;;;;;;;;5070053;28;20214;-68
2023/05/01 13:48:39;;;;;;;6.00;2.00;;;;;;;;;;5070429;28;20685;-69
2023/05/01 13:51:05;;;;;;;6.60;2.25;;;;;;;;;;5069451;28;20245;-68
2023/05/01 13:53:31;;;;;;;9.30;2.92;;;;;;;;;;5089480;28;20290;-68
2023/05/01 13:55:56;;;;;;;7.03;3.15;;;;;;;;;;5089713;28;20205;-68
2023/05/01 13:58:22;;;;;;;6.15;2.40;;;;;;;;;;5077173;28;20591;-67
2023/05/01 14:00:47;;;;;;;8.27;2.35;;;;;;;;;;5069128;28;20676;-68
2023/05/01 14:03:12;;;;;;;23.30;17.48;;;;;;;;;;5062278;28;20578;-69
2023/05/01 14:05:37;;;;;;;6.95;2.55;;;;;;;;;;5058893;28;20211;-68
2023/05/01 14:08:03;;;;;;;5.75;2.03;;;;;;;;;;5098349;28;20260;-68
2023/05/01 14:10:29;;;;;;;3.85;1.95;;;;;;;;;;5075192;28;20222;-69
2023/05/01 14:12:56;;;;;;;5.88;2.13;;;;;;;;;;5062496;28;20517;-68
2023/05/01 14:15:23;;;;;;;4.65;1.85;;;;;;;;;;5072505;28;20214;-68
2023/05/01 14:17:49;;;;;;;5.75;1.80;;;;;;;;;;5064692;28;20207;-68
2023/05/01 14:20:14;;;;;;;5.85;1.80;;;;;;;;;;5061668;28;20230;-68
2023/05/01 14:22:42;;;;;;;5.50;1.98;;;;;;;;;;5056899;28;20215;-69
2023/05/01 14:25:08;;;;;;;5.63;1.90;;;;;;;;;;5056642;28;20309;-68
2023/05/01 14:27:33;;;;;;;6.03;2.20;;;;;;;;;;5074210;28;20309;-69
2023/05/01 14:29:58;;;;;;;7.50;2.65;;;;;;;;;;5064326;28;20221;-70
2023/05/01 14:32:25;;;;;;;7.95;2.63;;;;;;;;;;5072023;28;20555;-69
2023/05/01 14:34:51;;;;;;;6.43;2.70;;;;;;;;;;5082996;28;20746;-69